createdAt,value
2023-04-30T00:00:00.369Z,14.60
2023-04-30T00:02:27.809Z,14.98
2023-04-30T00:04:55.090Z,14.70
2023-04-30T00:07:22.263Z,15.00
2023-04-30T00:09:51.255Z,14.68
2023-04-30T00:12:18.461Z,14.48
2023-04-30T00:14:45.517Z,15.05
2023-04-30T00:17:12.697Z,13.50
2023-04-30T00:19:39.821Z,13.25
2023-04-30T00:22:06.845Z,13.18
2023-04-30T00:24:34.239Z,12.93
2023-04-30T00:27:01.281Z,12.00
2023-04-30T00:29:28.229Z,12.68
2023-04-30T00:31:55.308Z,12.45
2023-04-30T00:34:22.314Z,11.93
2023-04-30T00:36:49.560Z,13.35
2023-04-30T00:39:16.740Z,12.52
2023-04-30T00:41:44.159Z,12.98
2023-04-30T00:44:11.234Z,12.60
2023-04-30T00:46:38.185Z,12.82
2023-04-30T00:49:05.543Z,13.75
2023-04-30T00:51:33.979Z,13.80
2023-04-30T00:54:04.467Z,13.70
2023-04-30T00:56:32.267Z,13.98
2023-04-30T00:58:59.820Z,14.45
2023-04-30T01:01:31.845Z,13.18
2023-04-30T01:03:59.425Z,13.82
2023-04-30T01:06:27.154Z,13.95
2023-04-30T01:08:54.733Z,14.80
2023-04-30T01:11:29.161Z,16.25
2023-04-30T01:14:10.080Z,16.57
2023-04-30T01:16:51.814Z,13.98
2023-04-30T01:19:44.823Z,12.30
2023-04-30T01:22:38.211Z,13.50
2023-04-30T01:25:08.397Z,13.93
2023-04-30T01:28:04.108Z,14.43
2023-04-30T01:30:33.195Z,15.25
2023-04-30T01:33:00.738Z,14.60
2023-04-30T01:35:58.857Z,15.50
2023-04-30T01:38:59.628Z,16.27
2023-04-30T01:41:55.672Z,19.17
2023-04-30T01:44:53.563Z,17.15
2023-04-30T01:47:58.009Z,14.60
2023-04-30T01:50:37.889Z,15.48
2023-04-30T01:53:10.819Z,14.63
2023-04-30T01:56:02.461Z,15.20
2023-04-30T01:58:30.835Z,14.70
2023-04-30T02:00:57.894Z,14.73
2023-04-30T02:03:25.099Z,15.20
2023-04-30T02:05:53.135Z,14.77
2023-04-30T02:08:20.465Z,14.90
2023-04-30T02:10:47.620Z,15.10
2023-04-30T02:13:14.701Z,14.63
2023-04-30T02:15:41.781Z,15.10
2023-04-30T02:18:08.833Z,15.80
2023-04-30T02:20:35.880Z,15.63
2023-04-30T02:23:02.933Z,15.82
2023-04-30T02:25:30.491Z,16.60
2023-04-30T02:27:57.431Z,17.40
2023-04-30T02:30:24.505Z,16.20
2023-04-30T02:32:51.628Z,14.77
2023-04-30T02:35:18.621Z,15.05
2023-04-30T02:37:45.649Z,14.65
2023-04-30T02:40:12.866Z,16.70
2023-04-30T02:42:39.911Z,16.35
2023-04-30T02:45:07.713Z,17.67
2023-04-30T02:47:34.934Z,17.73
2023-04-30T02:50:02.008Z,15.98
2023-04-30T02:52:28.997Z,15.70
2023-04-30T02:54:55.992Z,16.13
2023-04-30T02:57:23.018Z,14.30
2023-04-30T02:59:50.172Z,13.20
2023-04-30T03:02:20.992Z,14.40
2023-04-30T03:04:48.224Z,15.68
2023-04-30T03:07:15.400Z,16.67
2023-04-30T03:09:42.461Z,15.10
2023-04-30T03:12:09.528Z,14.03
2023-04-30T03:14:36.664Z,14.10
2023-04-30T03:17:03.707Z,16.05
2023-04-30T03:19:30.814Z,14.13
2023-04-30T03:21:57.810Z,14.13
2023-04-30T03:24:25.426Z,14.88
2023-04-30T03:26:52.428Z,15.60
2023-04-30T03:29:19.540Z,14.23
2023-04-30T03:31:46.525Z,15.40
2023-04-30T03:34:13.576Z,14.48
2023-04-30T03:36:40.728Z,14.55
2023-04-30T03:39:09.933Z,13.73
2023-04-30T03:41:36.987Z,14.65
2023-04-30T03:44:04.100Z,14.57
2023-04-30T03:46:31.206Z,14.88
2023-04-30T03:48:58.254Z,15.40
2023-04-30T03:51:25.842Z,17.00
2023-04-30T03:53:52.875Z,16.20
2023-04-30T03:56:19.875Z,16.40
2023-04-30T03:58:46.910Z,17.33
2023-04-30T04:01:13.967Z,19.40
2023-04-30T04:03:41.185Z,21.08
2023-04-30T04:06:08.367Z,24.00
2023-04-30T04:08:36.293Z,20.95
2023-04-30T04:11:03.354Z,17.63
2023-04-30T04:13:30.468Z,16.38
2023-04-30T04:15:57.524Z,15.52
2023-04-30T04:18:24.639Z,15.23
2023-04-30T04:20:51.851Z,15.30
2023-04-30T04:23:18.947Z,15.50
2023-04-30T04:25:46.689Z,17.45
2023-04-30T04:28:13.684Z,15.70
2023-04-30T04:30:40.996Z,15.00
2023-04-30T04:33:08.725Z,15.30
2023-04-30T04:35:35.839Z,15.93
2023-04-30T04:38:02.934Z,18.02
2023-04-30T04:40:31.668Z,16.83
2023-04-30T04:42:59.097Z,17.05
2023-04-30T04:45:26.458Z,17.08
2023-04-30T04:47:53.499Z,16.25
2023-04-30T04:50:21.148Z,15.60
2023-04-30T04:52:48.297Z,15.52
2023-04-30T04:55:15.826Z,17.65
2023-04-30T04:57:43.181Z,17.52
2023-04-30T05:00:11.928Z,17.95
2023-04-30T05:02:39.071Z,15.13
2023-04-30T05:05:07.085Z,12.52
2023-04-30T05:07:35.381Z,11.63
2023-04-30T05:10:02.515Z,10.00
2023-04-30T05:12:29.617Z,9.32
2023-04-30T05:14:56.573Z,8.75
2023-04-30T05:17:23.703Z,9.32
2023-04-30T05:19:51.527Z,9.05
2023-04-30T05:22:18.667Z,7.80
2023-04-30T05:24:45.844Z,7.70
2023-04-30T05:27:12.908Z,7.60
2023-04-30T05:29:39.959Z,9.77
2023-04-30T05:32:08.258Z,8.25
2023-04-30T05:34:35.638Z,6.87
2023-04-30T05:37:04.239Z,7.73
2023-04-30T05:39:31.302Z,6.97
2023-04-30T05:42:02.665Z,8.23
2023-04-30T06:11:31.601Z,7.83
2023-04-30T06:13:59.276Z,11.83
2023-04-30T06:16:26.489Z,7.60
2023-04-30T06:18:54.084Z,8.13
2023-04-30T06:21:21.520Z,6.10
2023-04-30T06:23:48.549Z,6.77
2023-04-30T06:26:15.667Z,6.37
2023-04-30T06:28:42.679Z,9.68
2023-04-30T06:31:09.923Z,7.03
2023-04-30T06:33:36.926Z,6.55
2023-04-30T06:36:04.413Z,8.27
2023-04-30T06:38:31.568Z,9.07
2023-04-30T06:40:58.816Z,8.67
2023-04-30T06:43:25.865Z,5.60
2023-04-30T06:45:52.929Z,7.33
2023-04-30T06:48:20.405Z,7.80
2023-04-30T06:50:47.435Z,7.27
2023-04-30T06:53:15.696Z,9.40
2023-04-30T06:55:43.278Z,8.63
2023-04-30T06:58:10.572Z,5.13
2023-04-30T07:00:37.606Z,8.03
2023-04-30T07:03:04.929Z,7.67
2023-04-30T07:05:32.892Z,8.50
2023-04-30T07:08:02.220Z,8.23
2023-04-30T07:10:29.789Z,8.20
2023-04-30T07:12:56.997Z,5.30
2023-04-30T07:15:24.220Z,8.33
2023-04-30T07:17:51.836Z,5.50
2023-04-30T07:20:19.106Z,6.77
2023-04-30T07:22:46.194Z,8.63
2023-04-30T07:25:14.219Z,6.33
2023-04-30T07:27:41.630Z,6.27
2023-04-30T07:32:41.229Z,6.65
2023-04-30T07:35:08.968Z,7.50
2023-04-30T07:37:36.437Z,6.50
2023-04-30T07:40:04.464Z,6.15
2023-04-30T07:42:31.602Z,6.88
2023-04-30T07:44:58.689Z,8.05
2023-04-30T07:47:26.018Z,7.78
2023-04-30T07:49:53.518Z,10.57
2023-04-30T07:52:21.011Z,8.70
2023-04-30T07:54:48.038Z,9.67
2023-04-30T07:57:15.072Z,9.23
2023-04-30T07:59:42.128Z,8.68
2023-04-30T08:02:10.013Z,9.55
2023-04-30T08:04:37.203Z,10.02
2023-04-30T08:07:04.843Z,7.82
2023-04-30T08:09:31.975Z,8.27
2023-04-30T08:14:27.092Z,8.68
2023-04-30T08:21:48.150Z,7.63
2023-04-30T08:24:15.191Z,7.63
2023-04-30T08:26:42.284Z,6.63
2023-04-30T08:51:17.548Z,7.20
2023-04-30T08:53:46.419Z,7.10
2023-04-30T08:56:13.581Z,5.03
2023-04-30T08:58:41.249Z,8.30
2023-04-30T09:01:09.741Z,10.13
2023-04-30T09:03:37.832Z,10.00
2023-04-30T09:06:05.236Z,7.80
2023-04-30T09:08:49.972Z,7.17
2023-04-30T09:11:31.720Z,7.73
2023-04-30T09:14:01.252Z,6.03
2023-04-30T09:16:33.128Z,7.97
2023-04-30T09:19:00.507Z,9.37
2023-04-30T09:21:35.849Z,5.40
2023-04-30T09:33:56.054Z,6.90
2023-04-30T09:36:23.197Z,8.23
2023-04-30T09:38:50.317Z,6.20
2023-04-30T09:41:30.972Z,7.47
2023-04-30T09:43:59.416Z,7.37
2023-04-30T09:46:38.451Z,9.20
2023-04-30T09:49:07.360Z,6.90
2023-04-30T09:51:35.767Z,6.23
2023-04-30T09:54:04.879Z,6.33
2023-04-30T09:56:36.060Z,10.43
2023-04-30T09:59:05.426Z,9.17
2023-04-30T10:01:33.494Z,12.30
2023-04-30T10:04:00.718Z,9.13
2023-04-30T10:06:29.976Z,5.57
2023-04-30T10:08:58.488Z,7.70
2023-04-30T10:11:28.961Z,6.77
2023-04-30T10:14:04.530Z,6.57
2023-04-30T10:16:55.957Z,3.90
2023-04-30T10:19:31.243Z,4.53
2023-04-30T10:21:58.329Z,4.83
2023-04-30T10:24:25.658Z,4.27
2023-04-30T10:26:52.889Z,7.00
2023-04-30T10:29:20.082Z,8.47
2023-04-30T10:31:50.119Z,6.07
2023-04-30T10:34:36.121Z,8.73
2023-04-30T10:37:15.149Z,4.73
2023-04-30T10:39:42.503Z,9.00
2023-04-30T10:42:11.666Z,6.97
2023-04-30T10:44:39.563Z,7.13
2023-04-30T10:47:08.047Z,5.83
2023-04-30T10:49:35.465Z,8.50
2023-04-30T10:52:05.245Z,5.80
2023-04-30T10:54:36.091Z,7.17
2023-04-30T10:57:20.193Z,6.13
2023-04-30T11:00:20.633Z,7.87
2023-04-30T11:02:48.895Z,6.57
2023-04-30T11:05:18.596Z,7.43
2023-04-30T11:07:59.319Z,5.90
2023-04-30T11:10:29.054Z,5.20
2023-04-30T11:12:56.469Z,4.63
2023-04-30T11:15:34.158Z,6.37
2023-04-30T11:18:01.384Z,11.30
2023-04-30T11:20:28.783Z,3.80
2023-04-30T11:23:39.462Z,4.67
2023-04-30T11:26:09.796Z,4.87
2023-04-30T11:28:38.339Z,5.13
2023-04-30T11:31:06.047Z,4.43
2023-04-30T11:33:34.433Z,3.47
2023-04-30T11:36:03.109Z,2.93
2023-04-30T11:38:35.760Z,3.47
2023-04-30T11:41:04.644Z,3.30
2023-04-30T11:43:34.049Z,2.63
2023-04-30T11:46:07.275Z,4.73
2023-04-30T11:48:39.911Z,3.90
2023-04-30T11:51:18.507Z,6.00
2023-04-30T11:53:51.609Z,5.30
2023-04-30T11:56:24.484Z,4.53
2023-04-30T11:58:55.005Z,3.87
2023-04-30T12:01:22.709Z,5.07
2023-04-30T12:03:53.516Z,5.40
2023-04-30T12:06:27.636Z,5.90
2023-04-30T15:44:24.773Z,3.70
2023-04-30T15:46:52.171Z,3.40
2023-04-30T15:49:19.600Z,2.43
2023-04-30T15:51:46.655Z,2.47
2023-04-30T15:54:14.179Z,2.83
2023-04-30T15:56:41.449Z,3.03
2023-04-30T15:59:08.721Z,4.47
2023-04-30T16:01:35.831Z,3.93
2023-04-30T16:04:04.081Z,3.67
2023-04-30T16:06:32.650Z,2.90
2023-04-30T16:09:00.555Z,2.83
2023-04-30T16:11:27.791Z,3.03
2023-04-30T16:13:54.952Z,4.55
2023-04-30T16:16:22.007Z,5.05
2023-04-30T16:18:49.794Z,5.53
2023-04-30T16:21:17.491Z,5.00
2023-04-30T16:23:47.378Z,4.13
2023-04-30T16:26:14.813Z,3.03
2023-04-30T16:28:41.774Z,3.07
2023-04-30T16:31:08.888Z,3.93
2023-04-30T16:33:36.188Z,3.40
2023-04-30T16:36:03.367Z,2.53
2023-04-30T16:38:30.335Z,3.23
2023-04-30T16:40:57.369Z,3.03
2023-04-30T16:43:24.426Z,3.30
2023-04-30T16:45:52.868Z,3.13
2023-04-30T16:48:20.051Z,4.03
2023-04-30T16:50:47.133Z,3.60
2023-04-30T16:53:14.174Z,2.20
2023-04-30T16:55:41.445Z,3.93
2023-04-30T16:58:08.494Z,4.67
2023-04-30T17:00:35.822Z,4.93
2023-04-30T17:03:03.144Z,6.47
2023-04-30T17:05:31.303Z,12.40
2023-04-30T17:07:58.371Z,4.17
2023-04-30T17:10:26.582Z,3.97
2023-04-30T17:12:53.573Z,3.90
2023-04-30T17:15:20.672Z,4.70
2023-04-30T17:17:47.785Z,5.13
2023-04-30T17:20:14.926Z,4.13
2023-04-30T17:22:41.940Z,6.50
2023-04-30T17:25:09.854Z,5.03
2023-04-30T17:27:37.698Z,4.57
2023-04-30T17:44:49.135Z,7.47
2023-04-30T17:47:16.417Z,4.32
2023-04-30T17:49:43.469Z,4.97
2023-04-30T17:52:10.557Z,3.23
2023-04-30T17:54:37.639Z,6.17
2023-04-30T17:57:04.841Z,4.93
2023-04-30T17:59:32.066Z,5.03
2023-04-30T18:01:59.457Z,4.63
2023-04-30T18:04:26.555Z,3.60
2023-04-30T18:06:53.718Z,5.10
2023-04-30T18:09:20.908Z,5.33
2023-04-30T18:11:48.099Z,3.00
2023-04-30T18:14:15.103Z,7.03
2023-04-30T18:16:42.539Z,4.70
2023-04-30T18:48:37.050Z,5.15
2023-04-30T18:51:04.662Z,3.93
2023-04-30T18:53:31.831Z,5.23
